sensor_id;sensor_type;location;lat;lon;timestamp;P1;durP1;ratioP1;P2;durP2;ratioP2
7899;SDS011;3995;50.856;4.404;2023-12-07T00:02:27;16.55;;;14.38;;
7899;SDS011;3995;50.856;4.404;2023-12-07T00:04:54;18.50;;;15.15;;
7899;SDS011;3995;50.856;4.404;2023-12-07T00:07:23;17.70;;;15.23;;
7899;SDS011;3995;50.856;4.404;2023-12-07T00:09:51;17.38;;;14.55;;
7899;SDS011;3995;50.856;4.404;2023-12-07T00:12:18;19.10;;;15.43;;
7899;SDS011;3995;50.856;4.404;2023-12-07T00:14:46;18.80;;;15.75;;
7899;SDS011;3995;50.856;4.404;2023-12-07T00:17:13;19.33;;;15.32;;
7899;SDS011;3995;50.856;4.404;2023-12-07T00:19:40;19.05;;;15.65;;
7899;SDS011;3995;50.856;4.404;2023-12-07T00:22:08;17.15;;;14.57;;
7899;SDS011;3995;50.856;4.404;2023-12-07T00:24:37;16.30;;;14.02;;
7899;SDS011;3995;50.856;4.404;2023-12-07T00:27:04;18.10;;;14.98;;
7899;SDS011;3995;50.856;4.404;2023-12-07T00:29:36;18.70;;;15.32;;
7899;SDS011;3995;50.856;4.404;2023-12-07T00:32:03;16.55;;;14.73;;
7899;SDS011;3995;50.856;4.404;2023-12-07T00:34:31;18.63;;;15.57;;
7899;SDS011;3995;50.856;4.404;2023-12-07T00:36:59;21.23;;;16.00;;
7899;SDS011;3995;50.856;4.404;2023-12-07T00:39:26;19.27;;;15.77;;
7899;SDS011;3995;50.856;4.404;2023-12-07T00:41:55;17.48;;;15.15;;
7899;SDS011;3995;50.856;4.404;2023-12-07T00:44:23;17.77;;;14.85;;
7899;SDS011;3995;50.856;4.404;2023-12-07T00:46:51;16.63;;;14.45;;
7899;SDS011;3995;50.856;4.404;2023-12-07T00:49:18;19.17;;;16.20;;
7899;SDS011;3995;50.856;4.404;2023-12-07T00:51:45;16.10;;;14.27;;
7899;SDS011;3995;50.856;4.404;2023-12-07T00:54:12;20.50;;;15.52;;
7899;SDS011;3995;50.856;4.404;2023-12-07T00:56:40;16.90;;;14.50;;
7899;SDS011;3995;50.856;4.404;2023-12-07T00:59:09;16.98;;;14.85;;
7899;SDS011;3995;50.856;4.404;2023-12-07T01:01:36;17.55;;;15.32;;
7899;SDS011;3995;50.856;4.404;2023-12-07T01:04:04;16.65;;;14.50;;
7899;SDS011;3995;50.856;4.404;2023-12-07T01:06:31;17.15;;;14.52;;
7899;SDS011;3995;50.856;4.404;2023-12-07T01:08:59;18.20;;;13.57;;
7899;SDS011;3995;50.856;4.404;2023-12-07T01:11:26;14.45;;;12.85;;
7899;SDS011;3995;50.856;4.404;2023-12-07T01:13:53;14.80;;;13.20;;
7899;SDS011;3995;50.856;4.404;2023-12-07T01:16:22;15.25;;;13.55;;
7899;SDS011;3995;50.856;4.404;2023-12-07T01:18:49;17.33;;;13.80;;
7899;SDS011;3995;50.856;4.404;2023-12-07T01:21:17;14.77;;;13.27;;
7899;SDS011;3995;50.856;4.404;2023-12-07T01:23:44;16.40;;;14.05;;
7899;SDS011;3995;50.856;4.404;2023-12-07T01:26:11;16.75;;;13.68;;
7899;SDS011;3995;50.856;4.404;2023-12-07T01:28:38;15.32;;;13.13;;
7899;SDS011;3995;50.856;4.404;2023-12-07T01:31:06;17.48;;;15.60;;
7899;SDS011;3995;50.856;4.404;2023-12-07T01:33:35;17.35;;;13.88;;
7899;SDS011;3995;50.856;4.404;2023-12-07T01:36:02;15.75;;;14.10;;
7899;SDS011;3995;50.856;4.404;2023-12-07T01:38:30;16.65;;;13.73;;
7899;SDS011;3995;50.856;4.404;2023-12-07T01:40:57;16.80;;;13.60;;
7899;SDS011;3995;50.856;4.404;2023-12-07T01:43:24;16.65;;;13.90;;
7899;SDS011;3995;50.856;4.404;2023-12-07T01:45:51;17.45;;;14.00;;
7899;SDS011;3995;50.856;4.404;2023-12-07T01:48:24;16.40;;;14.65;;
7899;SDS011;3995;50.856;4.404;2023-12-07T01:50:56;15.73;;;13.57;;
7899;SDS011;3995;50.856;4.404;2023-12-07T01:53:25;15.25;;;13.65;;
7899;SDS011;3995;50.856;4.404;2023-12-07T01:55:55;14.73;;;13.10;;
7899;SDS011;3995;50.856;4.404;2023-12-07T01:58:23;15.07;;;12.63;;
7899;SDS011;3995;50.856;4.404;2023-12-07T02:00:51;20.38;;;13.82;;
7899;SDS011;3995;50.856;4.404;2023-12-07T02:03:19;13.73;;;12.40;;
7899;SDS011;3995;50.856;4.404;2023-12-07T02:05:47;13.88;;;12.38;;
7899;SDS011;3995;50.856;4.404;2023-12-07T02:08:26;13.85;;;11.85;;
7899;SDS011;3995;50.856;4.404;2023-12-07T02:10:53;15.75;;;14.10;;
7899;SDS011;3995;50.856;4.404;2023-12-07T02:13:21;15.27;;;13.68;;
7899;SDS011;3995;50.856;4.404;2023-12-07T02:15:49;14.90;;;13.27;;
7899;SDS011;3995;50.856;4.404;2023-12-07T02:18:19;15.82;;;13.45;;
7899;SDS011;3995;50.856;4.404;2023-12-07T02:20:54;12.90;;;11.60;;
7899;SDS011;3995;50.856;4.404;2023-12-07T02:23:28;13.30;;;12.00;;
7899;SDS011;3995;50.856;4.404;2023-12-07T02:25:56;13.25;;;11.65;;
7899;SDS011;3995;50.856;4.404;2023-12-07T02:28:31;12.80;;;11.50;;
7899;SDS011;3995;50.856;4.404;2023-12-07T02:30:58;12.75;;;11.55;;
7899;SDS011;3995;50.856;4.404;2023-12-07T02:33:26;12.50;;;10.90;;
7899;SDS011;3995;50.856;4.404;2023-12-07T02:35:53;11.70;;;10.50;;
7899;SDS011;3995;50.856;4.404;2023-12-07T02:38:21;11.95;;;9.27;;
7899;SDS011;3995;50.856;4.404;2023-12-07T02:40:52;11.82;;;10.38;;
7899;SDS011;3995;50.856;4.404;2023-12-07T02:43:21;13.70;;;10.65;;
7899;SDS011;3995;50.856;4.404;2023-12-07T02:45:51;11.70;;;10.18;;
7899;SDS011;3995;50.856;4.404;2023-12-07T02:48:20;10.40;;;9.30;;
7899;SDS011;3995;50.856;4.404;2023-12-07T02:50:47;14.25;;;9.95;;
7899;SDS011;3995;50.856;4.404;2023-12-07T02:53:15;11.10;;;10.00;;
7899;SDS011;3995;50.856;4.404;2023-12-07T02:55:42;11.25;;;9.55;;
7899;SDS011;3995;50.856;4.404;2023-12-07T02:58:10;14.25;;;9.90;;
7899;SDS011;3995;50.856;4.404;2023-12-07T03:00:37;10.73;;;9.63;;
7899;SDS011;3995;50.856;4.404;2023-12-07T03:03:06;12.00;;;8.93;;
7899;SDS011;3995;50.856;4.404;2023-12-07T03:05:34;9.60;;;8.65;;
7899;SDS011;3995;50.856;4.404;2023-12-07T03:08:01;11.52;;;10.15;;
7899;SDS011;3995;50.856;4.404;2023-12-07T03:10:29;12.98;;;9.93;;
7899;SDS011;3995;50.856;4.404;2023-12-07T03:12:56;11.77;;;10.38;;
7899;SDS011;3995;50.856;4.404;2023-12-07T03:15:23;11.27;;;9.73;;
7899;SDS011;3995;50.856;4.404;2023-12-07T03:17:51;11.57;;;10.38;;
7899;SDS011;3995;50.856;4.404;2023-12-07T03:20:20;10.90;;;9.80;;
7899;SDS011;3995;50.856;4.404;2023-12-07T03:22:47;12.20;;;9.38;;
7899;SDS011;3995;50.856;4.404;2023-12-07T03:25:14;13.02;;;9.52;;
7899;SDS011;3995;50.856;4.404;2023-12-07T03:27:42;9.40;;;8.40;;
7899;SDS011;3995;50.856;4.404;2023-12-07T03:30:09;11.82;;;9.82;;
7899;SDS011;3995;50.856;4.404;2023-12-07T03:32:37;13.07;;;8.52;;
7899;SDS011;3995;50.856;4.404;2023-12-07T03:35:05;11.30;;;9.40;;
7899;SDS011;3995;50.856;4.404;2023-12-07T03:37:34;10.63;;;8.75;;
7899;SDS011;3995;50.856;4.404;2023-12-07T03:40:02;9.70;;;8.70;;
7899;SDS011;3995;50.856;4.404;2023-12-07T03:42:31;11.52;;;8.60;;
7899;SDS011;3995;50.856;4.404;2023-12-07T03:44:58;9.40;;;8.35;;
7899;SDS011;3995;50.856;4.404;2023-12-07T03:47:25;11.00;;;9.27;;
7899;SDS011;3995;50.856;4.404;2023-12-07T03:49:53;11.57;;;9.38;;
7899;SDS011;3995;50.856;4.404;2023-12-07T03:52:21;11.02;;;8.95;;
7899;SDS011;3995;50.856;4.404;2023-12-07T03:54:50;12.40;;;9.45;;
7899;SDS011;3995;50.856;4.404;2023-12-07T03:57:18;13.60;;;8.70;;
7899;SDS011;3995;50.856;4.404;2023-12-07T03:59:45;13.93;;;10.73;;
7899;SDS011;3995;50.856;4.404;2023-12-07T04:02:13;11.18;;;9.60;;
7899;SDS011;3995;50.856;4.404;2023-12-07T04:04:40;12.88;;;9.90;;
7899;SDS011;3995;50.856;4.404;2023-12-07T04:07:08;11.50;;;9.30;;
7899;SDS011;3995;50.856;4.404;2023-12-07T04:09:35;12.90;;;9.60;;
7899;SDS011;3995;50.856;4.404;2023-12-07T04:12:04;11.32;;;9.15;;
7899;SDS011;3995;50.856;4.404;2023-12-07T04:14:32;10.95;;;9.85;;
7899;SDS011;3995;50.856;4.404;2023-12-07T04:17:00;11.75;;;9.20;;
7899;SDS011;3995;50.856;4.404;2023-12-07T04:19:27;12.18;;;9.27;;
7899;SDS011;3995;50.856;4.404;2023-12-07T04:21:54;10.20;;;9.20;;
7899;SDS011;3995;50.856;4.404;2023-12-07T04:24:22;10.60;;;9.23;;
7899;SDS011;3995;50.856;4.404;2023-12-07T04:26:49;14.77;;;9.05;;
7899;SDS011;3995;50.856;4.404;2023-12-07T04:29:18;11.93;;;8.23;;
7899;SDS011;3995;50.856;4.404;2023-12-07T04:31:45;10.65;;;8.25;;
7899;SDS011;3995;50.856;4.404;2023-12-07T04:34:13;10.98;;;8.15;;
7899;SDS011;3995;50.856;4.404;2023-12-07T04:36:40;8.57;;;7.60;;
7899;SDS011;3995;50.856;4.404;2023-12-07T04:39:08;8.73;;;7.82;;
7899;SDS011;3995;50.856;4.404;2023-12-07T04:41:35;8.90;;;7.40;;
7899;SDS011;3995;50.856;4.404;2023-12-07T04:44:02;9.93;;;8.18;;
7899;SDS011;3995;50.856;4.404;2023-12-07T04:46:32;9.32;;;7.60;;
7899;SDS011;3995;50.856;4.404;2023-12-07T04:49:00;16.98;;;7.43;;
7899;SDS011;3995;50.856;4.404;2023-12-07T04:51:27;10.23;;;8.40;;
7899;SDS011;3995;50.856;4.404;2023-12-07T04:53:55;10.48;;;7.90;;
7899;SDS011;3995;50.856;4.404;2023-12-07T04:56:22;11.43;;;8.40;;
7899;SDS011;3995;50.856;4.404;2023-12-07T04:58:50;8.90;;;8.10;;
7899;SDS011;3995;50.856;4.404;2023-12-07T05:01:17;10.45;;;8.15;;
7899;SDS011;3995;50.856;4.404;2023-12-07T05:03:46;8.90;;;8.00;;
7899;SDS011;3995;50.856;4.404;2023-12-07T05:06:14;8.98;;;7.57;;
7899;SDS011;3995;50.856;4.404;2023-12-07T05:08:41;8.70;;;7.50;;
7899;SDS011;3995;50.856;4.404;2023-12-07T05:11:09;9.75;;;8.38;;
7899;SDS011;3995;50.856;4.404;2023-12-07T05:13:36;8.05;;;7.25;;
7899;SDS011;3995;50.856;4.404;2023-12-07T05:16:04;8.27;;;6.82;;
7899;SDS011;3995;50.856;4.404;2023-12-07T05:18:31;7.70;;;6.90;;
7899;SDS011;3995;50.856;4.404;2023-12-07T05:23:42;9.85;;;7.60;;
7899;SDS011;3995;50.856;4.404;2023-12-07T05:26:09;7.72;;;6.95;;
7899;SDS011;3995;50.856;4.404;2023-12-07T05:28:36;9.77;;;7.18;;
7899;SDS011;3995;50.856;4.404;2023-12-07T05:31:04;7.75;;;6.28;;
7899;SDS011;3995;50.856;4.404;2023-12-07T05:33:32;9.32;;;6.90;;
7899;SDS011;3995;50.856;4.404;2023-12-07T05:35:59;7.90;;;6.80;;
7899;SDS011;3995;50.856;4.404;2023-12-07T05:38:30;11.02;;;6.75;;
7899;SDS011;3995;50.856;4.404;2023-12-07T05:40:57;8.23;;;6.75;;
7899;SDS011;3995;50.856;4.404;2023-12-07T05:43:24;7.25;;;6.22;;
7899;SDS011;3995;50.856;4.404;2023-12-07T05:45:52;8.02;;;7.20;;
7899;SDS011;3995;50.856;4.404;2023-12-07T05:48:19;7.53;;;6.13;;
7899;SDS011;3995;50.856;4.404;2023-12-07T05:50:47;7.60;;;6.35;;
7899;SDS011;3995;50.856;4.404;2023-12-07T05:53:14;6.85;;;6.10;;
7899;SDS011;3995;50.856;4.404;2023-12-07T05:55:44;7.53;;;6.57;;
7899;SDS011;3995;50.856;4.404;2023-12-07T05:58:11;8.05;;;6.72;;
7899;SDS011;3995;50.856;4.404;2023-12-07T06:00:39;9.05;;;6.70;;
7899;SDS011;3995;50.856;4.404;2023-12-07T06:03:06;10.00;;;7.10;;
7899;SDS011;3995;50.856;4.404;2023-12-07T06:05:36;10.13;;;7.00;;
7899;SDS011;3995;50.856;4.404;2023-12-07T06:08:04;7.63;;;6.50;;
7899;SDS011;3995;50.856;4.404;2023-12-07T06:10:32;10.40;;;6.95;;
7899;SDS011;3995;50.856;4.404;2023-12-07T06:13:01;9.02;;;7.13;;
7899;SDS011;3995;50.856;4.404;2023-12-07T06:15:28;10.50;;;7.70;;
7899;SDS011;3995;50.856;4.404;2023-12-07T06:17:57;8.82;;;6.47;;
7899;SDS011;3995;50.856;4.404;2023-12-07T06:20:25;7.78;;;6.80;;
7899;SDS011;3995;50.856;4.404;2023-12-07T06:22:53;8.18;;;7.10;;
7899;SDS011;3995;50.856;4.404;2023-12-07T06:25:20;8.70;;;7.15;;
7899;SDS011;3995;50.856;4.404;2023-12-07T06:27:48;7.38;;;6.68;;
7899;SDS011;3995;50.856;4.404;2023-12-07T06:30:17;8.90;;;7.50;;
7899;SDS011;3995;50.856;4.404;2023-12-07T06:32:44;7.55;;;6.72;;
7899;SDS011;3995;50.856;4.404;2023-12-07T06:35:12;9.05;;;6.55;;
7899;SDS011;3995;50.856;4.404;2023-12-07T06:37:40;8.38;;;6.60;;
7899;SDS011;3995;50.856;4.404;2023-12-07T06:40:08;8.70;;;6.85;;
7899;SDS011;3995;50.856;4.404;2023-12-07T06:42:36;9.63;;;7.18;;
7899;SDS011;3995;50.856;4.404;2023-12-07T06:45:05;7.50;;;6.35;;
7899;SDS011;3995;50.856;4.404;2023-12-07T06:47:37;10.07;;;7.75;;
7899;SDS011;3995;50.856;4.404;2023-12-07T06:50:05;7.82;;;7.00;;
7899;SDS011;3995;50.856;4.404;2023-12-07T06:52:33;10.80;;;7.22;;
7899;SDS011;3995;50.856;4.404;2023-12-07T06:55:01;8.02;;;6.68;;
7899;SDS011;3995;50.856;4.404;2023-12-07T06:57:28;13.40;;;6.75;;
7899;SDS011;3995;50.856;4.404;2023-12-07T06:59:55;8.13;;;6.10;;
7899;SDS011;3995;50.856;4.404;2023-12-07T07:02:23;9.95;;;7.22;;
7899;SDS011;3995;50.856;4.404;2023-12-07T07:04:52;13.55;;;6.70;;
7899;SDS011;3995;50.856;4.404;2023-12-07T07:07:20;15.07;;;7.20;;
7899;SDS011;3995;50.856;4.404;2023-12-07T07:09:47;9.63;;;6.57;;
7899;SDS011;3995;50.856;4.404;2023-12-07T07:12:14;8.90;;;6.95;;
7899;SDS011;3995;50.856;4.404;2023-12-07T07:14:42;7.82;;;6.25;;
7899;SDS011;3995;50.856;4.404;2023-12-07T07:17:09;9.90;;;6.45;;
7899;SDS011;3995;50.856;4.404;2023-12-07T07:19:36;9.00;;;6.63;;
7899;SDS011;3995;50.856;4.404;2023-12-07T07:22:05;9.48;;;7.05;;
7899;SDS011;3995;50.856;4.404;2023-12-07T07:24:34;11.88;;;6.93;;
7899;SDS011;3995;50.856;4.404;2023-12-07T07:27:01;10.07;;;7.20;;
7899;SDS011;3995;50.856;4.404;2023-12-07T07:29:29;9.57;;;7.18;;
7899;SDS011;3995;50.856;4.404;2023-12-07T07:31:57;15.73;;;8.05;;
7899;SDS011;3995;50.856;4.404;2023-12-07T07:34:24;9.07;;;7.13;;
7899;SDS011;3995;50.856;4.404;2023-12-07T07:36:52;9.88;;;6.70;;
7899;SDS011;3995;50.856;4.404;2023-12-07T07:39:21;10.60;;;7.30;;
7899;SDS011;3995;50.856;4.404;2023-12-07T07:41:48;8.15;;;6.40;;
7899;SDS011;3995;50.856;4.404;2023-12-07T07:44:15;10.85;;;6.47;;
7899;SDS011;3995;50.856;4.404;2023-12-07T07:46:43;12.82;;;7.30;;
7899;SDS011;3995;50.856;4.404;2023-12-07T07:49:11;8.27;;;6.95;;
7899;SDS011;3995;50.856;4.404;2023-12-07T07:51:39;12.27;;;6.90;;
7899;SDS011;3995;50.856;4.404;2023-12-07T07:54:06;8.40;;;6.45;;
7899;SDS011;3995;50.856;4.404;2023-12-07T07:56:36;9.32;;;7.57;;
7899;SDS011;3995;50.856;4.404;2023-12-07T07:59:03;7.53;;;6.05;;
7899;SDS011;3995;50.856;4.404;2023-12-07T08:01:30;11.38;;;7.30;;
7899;SDS011;3995;50.856;4.404;2023-12-07T08:03:57;10.88;;;7.70;;
7899;SDS011;3995;50.856;4.404;2023-12-07T08:06:25;8.98;;;6.75;;
7899;SDS011;3995;50.856;4.404;2023-12-07T08:08:52;18.00;;;7.70;;
7899;SDS011;3995;50.856;4.404;2023-12-07T08:11:19;11.10;;;7.03;;
7899;SDS011;3995;50.856;4.404;2023-12-07T08:13:48;10.05;;;6.80;;
7899;SDS011;3995;50.856;4.404;2023-12-07T08:16:16;8.68;;;6.80;;
7899;SDS011;3995;50.856;4.404;2023-12-07T08:18:43;9.55;;;7.50;;
7899;SDS011;3995;50.856;4.404;2023-12-07T08:21:18;10.32;;;7.53;;
7899;SDS011;3995;50.856;4.404;2023-12-07T08:23:46;12.45;;;7.30;;
7899;SDS011;3995;50.856;4.404;2023-12-07T08:26:14;11.70;;;6.88;;
7899;SDS011;3995;50.856;4.404;2023-12-07T08:28:42;8.77;;;6.40;;
7899;SDS011;3995;50.856;4.404;2023-12-07T08:31:11;12.27;;;6.40;;
7899;SDS011;3995;50.856;4.404;2023-12-07T08:33:38;6.75;;;6.00;;
7899;SDS011;3995;50.856;4.404;2023-12-07T08:36:06;7.80;;;6.95;;
7899;SDS011;3995;50.856;4.404;2023-12-07T08:38:34;13.63;;;7.63;;
7899;SDS011;3995;50.856;4.404;2023-12-07T08:41:01;8.95;;;6.75;;
7899;SDS011;3995;50.856;4.404;2023-12-07T08:43:28;10.32;;;6.80;;
7899;SDS011;3995;50.856;4.404;2023-12-07T08:45:56;9.98;;;7.13;;
7899;SDS011;3995;50.856;4.404;2023-12-07T08:48:25;8.00;;;6.28;;
7899;SDS011;3995;50.856;4.404;2023-12-07T08:50:53;11.45;;;6.63;;
7899;SDS011;3995;50.856;4.404;2023-12-07T08:53:20;11.00;;;5.65;;
7899;SDS011;3995;50.856;4.404;2023-12-07T08:55:47;8.15;;;6.13;;
7899;SDS011;3995;50.856;4.404;2023-12-07T08:58:15;8.02;;;6.32;;
7899;SDS011;3995;50.856;4.404;2023-12-07T09:00:42;7.13;;;6.32;;
7899;SDS011;3995;50.856;4.404;2023-12-07T09:03:10;9.95;;;6.65;;
7899;SDS011;3995;50.856;4.404;2023-12-07T09:05:38;11.38;;;6.80;;
7899;SDS011;3995;50.856;4.404;2023-12-07T09:08:06;10.02;;;6.78;;
7899;SDS011;3995;50.856;4.404;2023-12-07T09:10:33;11.45;;;6.40;;
7899;SDS011;3995;50.856;4.404;2023-12-07T09:13:00;15.70;;;6.50;;
7899;SDS011;3995;50.856;4.404;2023-12-07T09:15:28;7.35;;;6.30;;
7899;SDS011;3995;50.856;4.404;2023-12-07T09:17:55;9.15;;;6.30;;
7899;SDS011;3995;50.856;4.404;2023-12-07T09:20:23;7.65;;;6.15;;
7899;SDS011;3995;50.856;4.404;2023-12-07T09:22:52;11.82;;;6.20;;
7899;SDS011;3995;50.856;4.404;2023-12-07T09:25:20;10.15;;;6.15;;
7899;SDS011;3995;50.856;4.404;2023-12-07T09:27:47;10.73;;;6.43;;
7899;SDS011;3995;50.856;4.404;2023-12-07T09:30:16;8.38;;;5.45;;
7899;SDS011;3995;50.856;4.404;2023-12-07T09:32:43;9.95;;;5.97;;
7899;SDS011;3995;50.856;4.404;2023-12-07T09:35:11;9.32;;;6.55;;
7899;SDS011;3995;50.856;4.404;2023-12-07T09:37:40;8.43;;;5.63;;
7899;SDS011;3995;50.856;4.404;2023-12-07T09:40:12;12.55;;;6.43;;
7899;SDS011;3995;50.856;4.404;2023-12-07T09:42:42;9.07;;;5.70;;
7899;SDS011;3995;50.856;4.404;2023-12-07T09:45:10;12.35;;;6.28;;
7899;SDS011;3995;50.856;4.404;2023-12-07T09:47:39;11.18;;;6.40;;
7899;SDS011;3995;50.856;4.404;2023-12-07T09:50:07;8.50;;;6.05;;
7899;SDS011;3995;50.856;4.404;2023-12-07T09:52:35;11.65;;;6.05;;
7899;SDS011;3995;50.856;4.404;2023-12-07T09:55:02;9.80;;;6.00;;
7899;SDS011;3995;50.856;4.404;2023-12-07T09:57:32;9.05;;;6.00;;
7899;SDS011;3995;50.856;4.404;2023-12-07T10:00:00;7.28;;;5.30;;
7899;SDS011;3995;50.856;4.404;2023-12-07T10:02:27;8.90;;;5.35;;
7899;SDS011;3995;50.856;4.404;2023-12-07T10:05:03;6.90;;;5.00;;
7899;SDS011;3995;50.856;4.404;2023-12-07T10:07:34;9.77;;;4.65;;
7899;SDS011;3995;50.856;4.404;2023-12-07T10:10:03;9.05;;;4.80;;
7899;SDS011;3995;50.856;4.404;2023-12-07T10:12:34;7.85;;;4.82;;
7899;SDS011;3995;50.856;4.404;2023-12-07T10:15:04;10.25;;;5.45;;
7899;SDS011;3995;50.856;4.404;2023-12-07T10:20:25;7.22;;;4.72;;
7899;SDS011;3995;50.856;4.404;2023-12-07T10:23:00;5.60;;;4.78;;
7899;SDS011;3995;50.856;4.404;2023-12-07T10:25:29;11.43;;;5.20;;
7899;SDS011;3995;50.856;4.404;2023-12-07T10:27:58;11.10;;;5.45;;
7899;SDS011;3995;50.856;4.404;2023-12-07T10:30:26;11.63;;;5.60;;
7899;SDS011;3995;50.856;4.404;2023-12-07T10:32:54;6.97;;;4.93;;
7899;SDS011;3995;50.856;4.404;2023-12-07T10:35:21;6.97;;;5.28;;
7899;SDS011;3995;50.856;4.404;2023-12-07T10:37:49;5.05;;;4.30;;
7899;SDS011;3995;50.856;4.404;2023-12-07T10:40:16;7.82;;;5.70;;
7899;SDS011;3995;50.856;4.404;2023-12-07T10:42:47;7.03;;;5.00;;
7899;SDS011;3995;50.856;4.404;2023-12-07T10:45:16;5.45;;;4.45;;
7899;SDS011;3995;50.856;4.404;2023-12-07T10:47:45;7.13;;;4.90;;
7899;SDS011;3995;50.856;4.404;2023-12-07T10:50:13;6.55;;;5.38;;
7899;SDS011;3995;50.856;4.404;2023-12-07T10:52:48;9.10;;;5.38;;
7899;SDS011;3995;50.856;4.404;2023-12-07T10:55:20;10.63;;;4.95;;
7899;SDS011;3995;50.856;4.404;2023-12-07T10:57:49;10.20;;;4.97;;
7899;SDS011;3995;50.856;4.404;2023-12-07T11:00:21;8.80;;;5.20;;
7899;SDS011;3995;50.856;4.404;2023-12-07T11:02:52;8.57;;;5.18;;
7899;SDS011;3995;50.856;4.404;2023-12-07T11:05:20;10.68;;;5.00;;
7899;SDS011;3995;50.856;4.404;2023-12-07T11:07:49;6.22;;;4.47;;
7899;SDS011;3995;50.856;4.404;2023-12-07T11:10:25;6.90;;;5.07;;
7899;SDS011;3995;50.856;4.404;2023-12-07T11:13:00;13.45;;;5.63;;
7899;SDS011;3995;50.856;4.404;2023-12-07T11:15:35;9.13;;;4.72;;
7899;SDS011;3995;50.856;4.404;2023-12-07T11:18:03;6.00;;;4.78;;
7899;SDS011;3995;50.856;4.404;2023-12-07T11:20:32;8.55;;;5.70;;
7899;SDS011;3995;50.856;4.404;2023-12-07T11:23:07;7.50;;;5.00;;
7899;SDS011;3995;50.856;4.404;2023-12-07T11:25:35;7.05;;;5.60;;
7899;SDS011;3995;50.856;4.404;2023-12-07T11:28:06;8.48;;;4.95;;
7899;SDS011;3995;50.856;4.404;2023-12-07T11:30:36;7.88;;;5.18;;
7899;SDS011;3995;50.856;4.404;2023-12-07T11:33:03;5.43;;;4.35;;
7899;SDS011;3995;50.856;4.404;2023-12-07T11:35:31;7.63;;;4.53;;
7899;SDS011;3995;50.856;4.404;2023-12-07T11:38:02;7.25;;;4.53;;
7899;SDS011;3995;50.856;4.404;2023-12-07T11:40:31;7.35;;;4.82;;
7899;SDS011;3995;50.856;4.404;2023-12-07T11:43:01;5.07;;;4.55;;
7899;SDS011;3995;50.856;4.404;2023-12-07T11:45:41;5.72;;;4.03;;
7899;SDS011;3995;50.856;4.404;2023-12-07T11:48:14;5.97;;;4.00;;
7899;SDS011;3995;50.856;4.404;2023-12-07T11:50:56;5.32;;;3.97;;
7899;SDS011;3995;50.856;4.404;2023-12-07T11:53:24;6.60;;;4.10;;
7899;SDS011;3995;50.856;4.404;2023-12-07T11:55:53;7.10;;;5.05;;
7899;SDS011;3995;50.856;4.404;2023-12-07T11:58:22;9.05;;;3.75;;
7899;SDS011;3995;50.856;4.404;2023-12-07T12:00:52;7.32;;;4.28;;
7899;SDS011;3995;50.856;4.404;2023-12-07T12:03:21;10.05;;;3.88;;
7899;SDS011;3995;50.856;4.404;2023-12-07T12:05:50;6.90;;;4.18;;
7899;SDS011;3995;50.856;4.404;2023-12-07T12:08:17;8.43;;;4.60;;
7899;SDS011;3995;50.856;4.404;2023-12-07T12:10:45;6.20;;;3.95;;
7899;SDS011;3995;50.856;4.404;2023-12-07T12:13:15;7.60;;;4.13;;
7899;SDS011;3995;50.856;4.404;2023-12-07T12:15:42;6.95;;;4.30;;
7899;SDS011;3995;50.856;4.404;2023-12-07T12:18:12;7.55;;;4.38;;
7899;SDS011;3995;50.856;4.404;2023-12-07T12:20:41;6.82;;;4.53;;
7899;SDS011;3995;50.856;4.404;2023-12-07T12:23:11;7.50;;;3.80;;
7899;SDS011;3995;50.856;4.404;2023-12-07T12:25:38;7.47;;;4.40;;
7899;SDS011;3995;50.856;4.404;2023-12-07T12:28:06;5.38;;;4.22;;
7899;SDS011;3995;50.856;4.404;2023-12-07T12:30:35;11.90;;;4.80;;
7899;SDS011;3995;50.856;4.404;2023-12-07T12:33:03;6.93;;;4.03;;
7899;SDS011;3995;50.856;4.404;2023-12-07T12:35:32;8.68;;;4.22;;
7899;SDS011;3995;50.856;4.404;2023-12-07T12:38:00;12.02;;;3.90;;
7899;SDS011;3995;50.856;4.404;2023-12-07T12:40:29;9.27;;;4.00;;
7899;SDS011;3995;50.856;4.404;2023-12-07T12:42:57;8.80;;;3.75;;
7899;SDS011;3995;50.856;4.404;2023-12-07T12:45:25;5.60;;;3.88;;
7899;SDS011;3995;50.856;4.404;2023-12-07T12:47:52;14.98;;;4.15;;
7899;SDS011;3995;50.856;4.404;2023-12-07T12:53:05;11.27;;;4.35;;
7899;SDS011;3995;50.856;4.404;2023-12-07T12:55:33;11.57;;;4.50;;
7899;SDS011;3995;50.856;4.404;2023-12-07T12:58:02;6.85;;;4.53;;
7899;SDS011;3995;50.856;4.404;2023-12-07T13:00:30;6.75;;;3.55;;
7899;SDS011;3995;50.856;4.404;2023-12-07T13:02:59;6.88;;;4.22;;
7899;SDS011;3995;50.856;4.404;2023-12-07T13:05:27;5.40;;;3.10;;
7899;SDS011;3995;50.856;4.404;2023-12-07T13:07:56;6.57;;;3.78;;
7899;SDS011;3995;50.856;4.404;2023-12-07T13:10:24;4.28;;;3.13;;
7899;SDS011;3995;50.856;4.404;2023-12-07T13:12:52;8.13;;;4.35;;
7899;SDS011;3995;50.856;4.404;2023-12-07T13:15:21;6.43;;;3.53;;
7899;SDS011;3995;50.856;4.404;2023-12-07T13:17:50;6.35;;;3.58;;
7899;SDS011;3995;50.856;4.404;2023-12-07T13:20:17;4.35;;;3.65;;
7899;SDS011;3995;50.856;4.404;2023-12-07T13:22:45;8.93;;;3.45;;
7899;SDS011;3995;50.856;4.404;2023-12-07T13:25:14;9.77;;;3.10;;
7899;SDS011;3995;50.856;4.404;2023-12-07T13:27:41;4.05;;;3.22;;
7899;SDS011;3995;50.856;4.404;2023-12-07T13:30:08;8.70;;;3.78;;
7899;SDS011;3995;50.856;4.404;2023-12-07T13:32:36;6.25;;;3.33;;
7899;SDS011;3995;50.856;4.404;2023-12-07T13:35:03;6.72;;;3.10;;
7899;SDS011;3995;50.856;4.404;2023-12-07T13:37:32;6.53;;;3.50;;
7899;SDS011;3995;50.856;4.404;2023-12-07T13:40:00;7.03;;;3.58;;
7899;SDS011;3995;50.856;4.404;2023-12-07T13:42:30;4.95;;;3.10;;
7899;SDS011;3995;50.856;4.404;2023-12-07T13:44:58;7.43;;;3.72;;
7899;SDS011;3995;50.856;4.404;2023-12-07T13:47:26;13.45;;;3.78;;
7899;SDS011;3995;50.856;4.404;2023-12-07T13:49:56;8.18;;;4.00;;
7899;SDS011;3995;50.856;4.404;2023-12-07T13:52:24;13.80;;;4.10;;
7899;SDS011;3995;50.856;4.404;2023-12-07T13:54:52;9.63;;;3.67;;
7899;SDS011;3995;50.856;4.404;2023-12-07T13:57:19;6.13;;;3.60;;
7899;SDS011;3995;50.856;4.404;2023-12-07T13:59:50;4.90;;;3.45;;
7899;SDS011;3995;50.856;4.404;2023-12-07T14:02:18;9.95;;;3.42;;
7899;SDS011;3995;50.856;4.404;2023-12-07T14:04:46;9.25;;;3.50;;
7899;SDS011;3995;50.856;4.404;2023-12-07T14:07:15;8.00;;;3.97;;
7899;SDS011;3995;50.856;4.404;2023-12-07T14:09:43;10.15;;;3.20;;
7899;SDS011;3995;50.856;4.404;2023-12-07T14:12:11;11.40;;;3.70;;
7899;SDS011;3995;50.856;4.404;2023-12-07T14:14:40;7.57;;;3.95;;
7899;SDS011;3995;50.856;4.404;2023-12-07T14:17:10;5.00;;;3.45;;
7899;SDS011;3995;50.856;4.404;2023-12-07T14:19:37;5.57;;;3.38;;
7899;SDS011;3995;50.856;4.404;2023-12-07T14:22:05;6.88;;;3.88;;
7899;SDS011;3995;50.856;4.404;2023-12-07T14:24:34;9.80;;;4.18;;
7899;SDS011;3995;50.856;4.404;2023-12-07T14:27:02;11.68;;;4.45;;
7899;SDS011;3995;50.856;4.404;2023-12-07T14:29:30;7.43;;;4.30;;
7899;SDS011;3995;50.856;4.404;2023-12-07T14:31:58;6.57;;;3.70;;
7899;SDS011;3995;50.856;4.404;2023-12-07T14:34:28;4.90;;;3.63;;
7899;SDS011;3995;50.856;4.404;2023-12-07T14:36:55;7.65;;;3.58;;
7899;SDS011;3995;50.856;4.404;2023-12-07T14:39:23;7.85;;;4.15;;
7899;SDS011;3995;50.856;4.404;2023-12-07T14:41:50;4.50;;;3.90;;
7899;SDS011;3995;50.856;4.404;2023-12-07T14:44:18;9.82;;;4.18;;
7899;SDS011;3995;50.856;4.404;2023-12-07T14:46:46;8.40;;;4.25;;
7899;SDS011;3995;50.856;4.404;2023-12-07T14:49:14;4.68;;;3.50;;
7899;SDS011;3995;50.856;4.404;2023-12-07T14:51:44;11.77;;;4.15;;
7899;SDS011;3995;50.856;4.404;2023-12-07T14:54:12;10.45;;;4.38;;
7899;SDS011;3995;50.856;4.404;2023-12-07T14:56:39;6.45;;;3.90;;
7899;SDS011;3995;50.856;4.404;2023-12-07T14:59:07;9.15;;;4.53;;
7899;SDS011;3995;50.856;4.404;2023-12-07T15:01:36;7.18;;;4.32;;
7899;SDS011;3995;50.856;4.404;2023-12-07T15:04:03;4.75;;;4.28;;
7899;SDS011;3995;50.856;4.404;2023-12-07T15:06:31;11.57;;;4.28;;
7899;SDS011;3995;50.856;4.404;2023-12-07T15:09:00;11.95;;;4.00;;
7899;SDS011;3995;50.856;4.404;2023-12-07T15:11:30;5.97;;;4.30;;
7899;SDS011;3995;50.856;4.404;2023-12-07T15:13:58;9.30;;;4.40;;
7899;SDS011;3995;50.856;4.404;2023-12-07T15:16:25;12.55;;;5.13;;
7899;SDS011;3995;50.856;4.404;2023-12-07T15:18:52;5.25;;;3.95;;
7899;SDS011;3995;50.856;4.404;2023-12-07T15:21:20;6.82;;;4.40;;